createdAt,value
2018-02-19T00:01:18.067Z,98962.76
2018-02-19T00:03:45.654Z,98962.46
2018-02-19T00:06:13.269Z,98957.47
2018-02-19T00:08:40.924Z,98953.64
2018-02-19T00:11:08.497Z,98947.07
2018-02-19T00:13:36.135Z,98951.69
2018-02-19T00:16:03.727Z,98953.22
2018-02-19T00:18:31.335Z,98948.50
2018-02-19T00:20:59.259Z,98942.98
2018-02-19T00:23:26.930Z,98945.89
2018-02-19T00:25:54.499Z,98949.42
2018-02-19T00:28:22.111Z,98950.63
2018-02-19T00:30:49.710Z,98935.88
2018-02-19T00:33:17.293Z,98937.65
2018-02-19T00:35:44.957Z,98933.98
2018-02-19T00:38:12.512Z,98936.31
2018-02-19T00:40:41.018Z,98944.84
2018-02-19T00:43:08.674Z,98943.50
2018-02-19T00:45:36.250Z,98940.27
2018-02-19T00:48:03.832Z,98937.94
2018-02-19T00:50:31.857Z,98941.17
2018-02-19T00:52:59.438Z,98942.94
2018-02-19T00:55:27.074Z,98943.44
2018-02-19T00:57:54.738Z,98946.05
2018-02-19T01:00:22.322Z,98939.68
2018-02-19T01:02:49.919Z,98949.05
2018-02-19T01:05:17.541Z,98952.09
2018-02-19T01:07:45.197Z,98947.59
2018-02-19T01:10:12.777Z,98946.45
2018-02-19T01:12:40.414Z,98946.36
2018-02-19T01:15:07.976Z,98938.14
2018-02-19T01:17:35.538Z,98938.27
2018-02-19T01:20:03.512Z,98946.12
2018-02-19T01:22:31.110Z,98945.88
2018-02-19T01:24:58.677Z,98943.56
2018-02-19T01:27:26.328Z,98949.77
2018-02-19T01:29:53.888Z,98943.28
2018-02-19T01:32:21.522Z,98946.45
2018-02-19T01:34:49.163Z,98943.91
2018-02-19T01:37:16.759Z,98946.81
2018-02-19T01:39:44.346Z,98942.57
2018-02-19T01:42:12.210Z,98941.47
2018-02-19T01:44:39.785Z,98943.48
2018-02-19T01:47:07.378Z,98939.47
2018-02-19T01:49:35.025Z,98945.70
2018-02-19T01:52:02.837Z,98944.42
2018-02-19T01:54:30.418Z,98939.42
2018-02-19T01:56:58.045Z,98937.73
2018-02-19T01:59:25.631Z,98941.45
2018-02-19T02:01:53.328Z,98935.19
2018-02-19T02:04:20.991Z,98930.88
2018-02-19T02:06:48.891Z,98937.94
2018-02-19T02:09:16.481Z,98930.45
2018-02-19T02:11:44.198Z,98939.56
2018-02-19T02:14:11.770Z,98929.17
2018-02-19T02:16:39.341Z,98936.94
2018-02-19T02:19:06.995Z,98934.33
2018-02-19T02:21:34.564Z,98931.02
2018-02-19T02:24:02.158Z,98931.87
2018-02-19T02:26:29.793Z,98930.52
2018-02-19T02:28:58.251Z,98930.51
2018-02-19T02:31:25.829Z,98929.26
2018-02-19T02:33:53.465Z,98930.73
2018-02-19T02:36:21.042Z,98929.46
2018-02-19T02:38:48.617Z,98934.94
2018-02-19T02:41:16.264Z,98931.09
2018-02-19T02:43:43.865Z,98930.45
2018-02-19T02:46:11.468Z,98928.41
2018-02-19T02:48:39.343Z,98939.03
2018-02-19T02:51:06.980Z,98942.80
2018-02-19T02:53:34.901Z,98939.05
2018-02-19T02:56:02.529Z,98937.77
2018-02-19T02:58:30.205Z,98935.80
2018-02-19T03:00:57.794Z,98938.61
2018-02-19T03:03:25.446Z,98936.94
2018-02-19T03:05:53.050Z,98932.98
2018-02-19T03:08:20.706Z,98934.81
2018-02-19T03:10:48.313Z,98931.50
2018-02-19T03:13:15.894Z,98932.55
2018-02-19T03:15:43.452Z,98934.23
2018-02-19T03:18:11.089Z,98937.31
2018-02-19T03:20:38.659Z,98942.69
2018-02-19T03:23:06.305Z,98936.91
2018-02-19T03:25:33.936Z,98945.00
2018-02-19T03:28:01.578Z,98938.59
2018-02-19T03:30:29.270Z,98937.47
2018-02-19T03:32:56.910Z,98930.71
2018-02-19T03:35:24.473Z,98939.12
2018-02-19T03:37:52.046Z,98942.30
2018-02-19T03:40:20.834Z,98939.12
2018-02-19T03:42:48.413Z,98935.53
2018-02-19T03:45:16.070Z,98942.91
2018-02-19T03:47:43.721Z,98942.41
2018-02-19T03:50:11.340Z,98943.27
2018-02-19T03:52:39.408Z,98942.47
2018-02-19T03:55:08.105Z,98944.81
2018-02-19T03:57:35.668Z,98947.00
2018-02-19T04:00:03.271Z,98948.04
2018-02-19T04:02:30.988Z,98947.88
2018-02-19T04:04:58.548Z,98947.31
2018-02-19T04:07:26.192Z,98954.38
2018-02-19T04:09:54.086Z,98955.27
2018-02-19T04:12:21.658Z,98949.72
2018-02-19T04:14:49.235Z,98956.34
2018-02-19T04:17:17.552Z,98954.78
2018-02-19T04:19:45.128Z,98953.39
2018-02-19T04:22:12.753Z,98946.98
2018-02-19T04:24:40.397Z,98951.30
2018-02-19T04:27:07.979Z,98956.91
2018-02-19T04:29:35.557Z,98958.02
2018-02-19T04:32:03.189Z,98954.80
2018-02-19T04:34:30.766Z,98957.19
2018-02-19T04:36:58.365Z,98958.09
2018-02-19T04:39:25.994Z,98956.66
2018-02-19T04:41:53.576Z,98958.34
2018-02-19T04:44:24.536Z,98965.22
2018-02-19T04:46:52.471Z,98957.11
2018-02-19T04:49:20.055Z,98965.05
2018-02-19T04:51:47.613Z,98967.11
2018-02-19T04:54:15.263Z,98969.45
2018-02-19T04:56:42.946Z,98975.50
2018-02-19T04:59:10.630Z,98981.09
2018-02-19T05:01:38.344Z,98983.36
2018-02-19T05:04:05.917Z,98985.73
2018-02-19T05:06:33.551Z,98980.95
2018-02-19T05:09:01.200Z,98985.36
2018-02-19T05:11:28.772Z,98978.22
2018-02-19T05:13:56.406Z,98979.98
2018-02-19T05:16:24.032Z,98983.11
2018-02-19T05:18:51.601Z,98984.83
2018-02-19T05:21:19.190Z,98984.63
2018-02-19T05:23:46.864Z,98981.30
2018-02-19T05:26:14.463Z,98984.58
2018-02-19T05:28:42.054Z,98977.53
2018-02-19T05:31:09.688Z,98984.22
2018-02-19T05:33:37.273Z,98989.80
2018-02-19T05:36:04.841Z,98997.69
2018-02-19T05:38:32.466Z,98993.11
2018-02-19T05:41:00.131Z,99004.16
2018-02-19T05:43:27.688Z,99003.04
2018-02-19T05:45:55.818Z,99002.70
2018-02-19T05:48:23.400Z,99010.02
2018-02-19T05:50:51.012Z,99014.35
2018-02-19T05:53:18.701Z,99012.66
2018-02-19T05:55:46.285Z,99020.35
2018-02-19T05:58:13.962Z,99015.84
2018-02-19T06:00:41.575Z,99018.59
2018-02-19T06:03:09.145Z,99023.78
2018-02-19T06:05:36.736Z,99017.19
2018-02-19T06:08:04.411Z,99013.36
2018-02-19T06:10:32.075Z,99015.89
2018-02-19T06:12:59.655Z,99013.78
2018-02-19T06:15:27.281Z,99015.61
2018-02-19T06:17:54.850Z,99016.05
2018-02-19T06:20:22.444Z,99018.99
2018-02-19T06:22:50.345Z,99029.51
2018-02-19T06:25:17.930Z,99038.59
2018-02-19T06:27:45.682Z,99037.69
2018-02-19T06:30:13.365Z,99030.09
2018-02-19T06:32:40.973Z,99034.94
2018-02-19T06:35:08.570Z,99036.11
2018-02-19T06:37:36.232Z,99043.08
2018-02-19T06:40:03.849Z,99045.89
2018-02-19T06:42:31.479Z,99043.94
2018-02-19T06:44:59.195Z,99049.08
2018-02-19T06:47:26.774Z,99043.59
2018-02-19T06:49:54.342Z,99051.63
2018-02-19T06:52:22.008Z,99049.58
2018-02-19T06:54:49.584Z,99058.00
2018-02-19T06:57:17.145Z,99051.73
2018-02-19T06:59:45.459Z,99047.41
2018-02-19T07:02:13.050Z,99051.42
2018-02-19T07:04:40.694Z,99049.80
2018-02-19T07:07:08.326Z,99049.31
2018-02-19T07:09:35.982Z,99056.20
2018-02-19T07:12:03.552Z,99058.17
2018-02-19T07:14:31.182Z,99053.27
2018-02-19T07:16:58.760Z,99062.22
2018-02-19T07:19:26.330Z,99053.99
2018-02-19T07:21:53.974Z,99059.06
2018-02-19T07:24:21.553Z,99057.37
2018-02-19T07:26:49.174Z,99052.70
2018-02-19T07:29:16.818Z,99057.38
2018-02-19T07:31:44.431Z,99060.80
2018-02-19T07:34:12.083Z,99059.44
2018-02-19T07:36:39.704Z,99055.55
2018-02-19T07:39:07.287Z,99056.45
2018-02-19T07:41:35.354Z,99050.09
2018-02-19T07:44:02.985Z,99050.33
2018-02-19T07:46:30.547Z,99055.68
2018-02-19T07:48:58.146Z,99053.68
2018-02-19T07:51:25.772Z,99053.25
2018-02-19T07:53:53.337Z,99048.73
2018-02-19T07:56:20.918Z,99051.65
2018-02-19T07:58:48.714Z,99053.11
2018-02-19T08:01:16.402Z,99055.23
2018-02-19T08:03:44.446Z,99053.49
2018-02-19T08:06:12.093Z,99044.20
2018-02-19T08:08:39.664Z,99053.48
2018-02-19T08:11:08.178Z,99055.19
2018-02-19T08:13:35.809Z,99048.52
2018-02-19T08:16:03.390Z,99054.42
2018-02-19T08:18:30.987Z,99059.56
2018-02-19T08:20:58.642Z,99057.09
2018-02-19T08:23:26.209Z,99060.80
2018-02-19T08:25:53.760Z,99054.09
2018-02-19T08:28:21.458Z,99062.67
2018-02-19T08:30:49.042Z,99055.30
2018-02-19T08:33:16.687Z,99064.88
2018-02-19T08:35:44.319Z,99065.09
2018-02-19T08:38:11.976Z,99065.84
2018-02-19T08:40:39.540Z,99065.02
2018-02-19T08:43:07.164Z,99065.53
2018-02-19T08:45:34.802Z,99071.44
2018-02-19T08:48:02.387Z,99078.23
2018-02-19T08:50:30.027Z,99073.03
2018-02-19T08:52:57.674Z,99056.98
2018-02-19T08:55:25.354Z,99064.00
2018-02-19T08:57:53.038Z,99067.23
2018-02-19T09:00:20.782Z,99071.33
2018-02-19T09:02:48.466Z,99076.61
2018-02-19T09:05:16.110Z,99075.62
2018-02-19T09:07:43.693Z,99077.48
2018-02-19T09:10:11.304Z,99081.19
2018-02-19T09:12:38.987Z,99078.05
2018-02-19T09:15:06.528Z,99076.95
2018-02-19T09:17:34.185Z,99080.83
2018-02-19T09:20:02.048Z,99077.30
2018-02-19T09:22:29.718Z,99078.59
2018-02-19T09:24:57.272Z,99081.62
2018-02-19T09:27:24.909Z,99076.14
2018-02-19T09:29:52.507Z,99072.45
2018-02-19T09:32:20.101Z,99072.87
2018-02-19T09:34:47.817Z,99072.95
2018-02-19T09:37:15.387Z,99070.34
2018-02-19T09:39:43.028Z,99074.05
2018-02-19T09:42:10.743Z,99074.41
2018-02-19T09:44:38.318Z,99072.69
2018-02-19T09:47:05.919Z,99072.76
2018-02-19T09:49:33.545Z,99068.50
2018-02-19T09:52:01.123Z,99075.98
2018-02-19T09:54:28.703Z,99074.69
2018-02-19T09:56:56.347Z,99069.58
2018-02-19T09:59:23.919Z,99069.08
2018-02-19T10:01:51.498Z,99081.62
2018-02-19T10:04:19.222Z,99068.97
2018-02-19T10:06:46.867Z,99066.69
2018-02-19T10:09:14.432Z,99060.89
2018-02-19T10:11:42.878Z,99063.98
2018-02-19T10:14:10.459Z,99061.77
2018-02-19T10:16:38.031Z,99059.00
2018-02-19T10:19:05.658Z,99055.72
2018-02-19T10:21:33.235Z,99051.02
2018-02-19T10:24:00.805Z,99044.26
2018-02-19T10:26:28.454Z,99042.86
2018-02-19T10:28:56.042Z,99044.98
2018-02-19T10:31:23.621Z,99044.22
2018-02-19T10:33:51.274Z,99041.42
2018-02-19T10:36:18.845Z,99044.06
2018-02-19T10:38:46.491Z,99039.04
2018-02-19T10:41:14.112Z,99039.34
2018-02-19T10:43:41.686Z,99041.81
2018-02-19T10:46:09.296Z,99044.32
2018-02-19T10:48:36.932Z,99043.91
2018-02-19T10:51:04.598Z,99040.69
2018-02-19T10:53:32.981Z,99044.58
2018-02-19T10:56:00.641Z,99042.56
2018-02-19T10:58:28.218Z,99044.47
2018-02-19T11:00:55.784Z,99045.32
2018-02-19T11:03:23.439Z,99044.33
2018-02-19T11:05:51.138Z,99043.73
2018-02-19T11:08:19.331Z,99043.56
2018-02-19T11:10:46.978Z,99034.55
2018-02-19T11:13:14.569Z,99034.28
2018-02-19T11:15:42.137Z,99023.11
2018-02-19T11:18:09.800Z,99028.75
2018-02-19T11:20:37.367Z,99031.86
2018-02-19T11:23:04.933Z,99030.66
2018-02-19T11:25:32.578Z,99027.51
2018-02-19T11:28:00.148Z,99027.39
2018-02-19T11:30:27.716Z,99026.75
2018-02-19T11:32:55.351Z,99029.14
2018-02-19T11:35:22.951Z,99029.14
2018-02-19T11:37:50.534Z,99030.58
2018-02-19T11:40:18.150Z,99029.27
2018-02-19T11:42:45.728Z,99024.21
2018-02-19T11:45:13.293Z,99029.11
2018-02-19T11:47:41.076Z,99032.85
2018-02-19T11:50:09.038Z,99032.57
2018-02-19T11:52:36.691Z,99030.68
2018-02-19T11:55:04.328Z,99027.64
2018-02-19T11:57:31.920Z,99028.82
2018-02-19T11:59:59.491Z,99026.98
2018-02-19T12:02:27.133Z,99016.96
2018-02-19T12:04:54.720Z,99015.56
2018-02-19T12:07:22.425Z,99018.31
2018-02-19T12:09:50.057Z,99016.13
2018-02-19T12:12:17.639Z,99017.34
2018-02-19T12:14:45.231Z,99021.16
2018-02-19T12:17:12.866Z,99019.25
2018-02-19T12:19:40.537Z,99020.86
2018-02-19T12:22:08.138Z,99010.27
2018-02-19T12:24:35.807Z,99012.89
2018-02-19T12:27:03.398Z,99015.05
2018-02-19T12:29:31.042Z,99017.90
2018-02-19T12:31:58.826Z,99010.83
2018-02-19T12:34:26.400Z,99016.33
2018-02-19T12:36:53.969Z,99017.47
2018-02-19T12:39:21.614Z,99015.84
2018-02-19T12:41:49.186Z,99006.81
2018-02-19T12:44:16.762Z,99010.77
2018-02-19T12:46:44.403Z,99009.84
2018-02-19T12:49:11.979Z,99005.42
2018-02-19T12:51:39.548Z,99007.97
2018-02-19T12:54:07.847Z,99012.31
2018-02-19T12:56:35.412Z,99010.00
2018-02-19T12:59:03.017Z,99011.90
2018-02-19T13:01:30.668Z,99012.55
2018-02-19T13:03:58.310Z,99011.76
2018-02-19T13:06:25.891Z,99009.86
2018-02-19T13:08:53.740Z,99017.20
2018-02-19T13:11:21.280Z,99006.67
2018-02-19T13:13:48.857Z,99007.53
2018-02-19T13:16:16.517Z,99007.23
2018-02-19T13:18:44.122Z,99016.13
2018-02-19T13:21:11.744Z,99013.87
2018-02-19T13:23:39.353Z,99009.66
2018-02-19T13:26:06.932Z,99012.46
2018-02-19T13:28:34.525Z,99010.05
2018-02-19T13:31:02.251Z,99011.44
2018-02-19T13:33:29.908Z,99008.98
2018-02-19T13:35:57.541Z,99000.03
2018-02-19T13:38:25.168Z,99005.95
2018-02-19T13:40:52.762Z,98999.25
2018-02-19T13:43:20.410Z,99001.95
2018-02-19T13:45:48.149Z,99003.37
2018-02-19T13:48:15.849Z,98997.30
2018-02-19T13:50:43.628Z,98999.14
2018-02-19T13:53:11.460Z,98997.20
2018-02-19T13:55:39.199Z,99003.30
2018-02-19T13:58:06.922Z,99012.88
2018-02-19T14:00:34.908Z,99011.19
2018-02-19T14:03:02.598Z,99008.00
2018-02-19T14:05:30.342Z,99005.59
2018-02-19T14:07:58.161Z,99009.84
2018-02-19T14:10:26.308Z,99003.83
2018-02-19T14:12:53.984Z,99008.52
2018-02-19T14:15:21.686Z,99013.80
2018-02-19T14:17:49.260Z,98999.50
2018-02-19T14:20:17.398Z,99002.27
2018-02-19T14:22:45.014Z,98998.91
2018-02-19T14:25:12.569Z,99000.41
2018-02-19T14:27:40.148Z,99005.48
2018-02-19T14:30:07.836Z,99007.92
2018-02-19T14:32:35.480Z,99006.41
2018-02-19T14:35:03.056Z,99002.52
2018-02-19T14:37:30.771Z,99010.56
2018-02-19T14:39:58.378Z,99008.31
2018-02-19T14:42:25.945Z,99008.44
2018-02-19T14:44:53.586Z,99008.02
2018-02-19T14:47:21.150Z,99011.05
2018-02-19T14:49:48.719Z,99012.81
2018-02-19T14:52:16.342Z,99011.30
2018-02-19T14:54:43.970Z,99013.33
2018-02-19T14:57:11.542Z,99010.34
2018-02-19T14:59:39.236Z,99014.36
2018-02-19T15:02:06.824Z,99007.91
2018-02-19T15:04:34.405Z,99010.70
2018-02-19T15:07:02.121Z,99009.61
2018-02-19T15:09:29.673Z,99016.97
2018-02-19T15:11:57.410Z,99014.29
2018-02-19T15:14:25.107Z,99013.13
2018-02-19T15:16:52.678Z,99014.77
2018-02-19T15:19:20.264Z,99018.30
2018-02-19T15:21:47.882Z,99017.23
2018-02-19T15:24:15.496Z,99018.57
2018-02-19T15:26:43.279Z,99010.63
2018-02-19T15:29:11.085Z,99019.88
2018-02-19T15:31:38.669Z,99021.58
2018-02-19T15:34:06.281Z,99012.88
2018-02-19T15:36:33.926Z,99020.16
2018-02-19T15:39:01.546Z,99010.93
2018-02-19T15:41:29.153Z,99020.28
2018-02-19T15:43:56.766Z,99014.80
2018-02-19T15:46:24.395Z,99019.55
2018-02-19T15:48:52.192Z,99023.94
2018-02-19T15:51:20.959Z,99027.73
2018-02-19T15:53:49.564Z,99035.07
2018-02-19T15:56:17.206Z,99036.29
2018-02-19T15:58:44.826Z,99044.34
2018-02-19T16:01:12.404Z,99038.23
2018-02-19T16:03:39.974Z,99045.59
2018-02-19T16:06:07.594Z,99042.13
2018-02-19T16:08:36.176Z,99043.65
2018-02-19T16:11:03.873Z,99051.19
2018-02-19T16:13:32.202Z,99051.92
2018-02-19T16:16:00.185Z,99054.53
2018-02-19T16:18:27.754Z,99050.36
2018-02-19T16:20:55.428Z,99047.75
2018-02-19T16:23:23.031Z,99052.22
2018-02-19T16:25:51.020Z,99055.75
2018-02-19T16:28:19.489Z,99047.42
2018-02-19T16:30:47.445Z,99050.27
2018-02-19T16:33:15.499Z,99048.45
2018-02-19T16:35:43.133Z,99053.67
2018-02-19T16:38:10.719Z,99064.95
2018-02-19T16:40:38.336Z,99066.89
2018-02-19T16:43:05.971Z,99066.61
2018-02-19T16:45:33.551Z,99066.19
2018-02-19T16:48:01.200Z,99072.18
2018-02-19T16:50:28.813Z,99064.03
2018-02-19T16:52:56.766Z,99065.61
2018-02-19T16:55:24.418Z,99070.00
2018-02-19T16:57:52.076Z,99071.30
2018-02-19T17:00:19.644Z,99069.43
2018-02-19T17:02:47.476Z,99073.38
2018-02-19T17:05:15.343Z,99071.13
2018-02-19T17:07:43.144Z,99067.34
2018-02-19T17:10:11.040Z,99061.07
2018-02-19T17:12:38.947Z,99077.54
2018-02-19T17:15:06.729Z,99062.56
2018-02-19T17:17:34.325Z,99071.67
2018-02-19T17:20:01.959Z,99062.78
2018-02-19T17:22:29.577Z,99065.34
2018-02-19T17:24:57.159Z,99062.78
2018-02-19T17:27:24.831Z,99065.66
2018-02-19T17:29:52.397Z,99073.48
2018-02-19T17:32:19.971Z,99072.05
2018-02-19T17:34:47.837Z,99074.20
2018-02-19T17:37:15.413Z,99079.71
2018-02-19T17:39:43.114Z,99077.41
2018-02-19T17:42:10.753Z,99073.19
2018-02-19T17:44:38.345Z,99070.55
2018-02-19T17:47:05.920Z,99066.42
2018-02-19T17:49:33.596Z,99066.23
2018-02-19T17:52:01.186Z,99067.23
2018-02-19T17:54:28.763Z,99066.59
2018-02-19T17:56:56.663Z,99074.08
2018-02-19T17:59:24.236Z,99079.33
2018-02-19T18:01:51.831Z,99076.80
2018-02-19T18:04:19.514Z,99076.02
2018-02-19T18:06:47.077Z,99080.16
2018-02-19T18:09:14.659Z,99078.70
2018-02-19T18:11:42.352Z,99080.42
2018-02-19T18:14:09.999Z,99077.80
2018-02-19T18:16:37.726Z,99087.33
2018-02-19T18:19:05.357Z,99086.30
2018-02-19T18:21:32.943Z,99082.56
2018-02-19T18:24:00.539Z,99086.19
2018-02-19T18:26:28.243Z,99083.43
2018-02-19T18:28:55.805Z,99091.86
2018-02-19T18:31:23.404Z,99093.05
2018-02-19T18:33:51.035Z,99092.94
2018-02-19T18:36:18.646Z,99089.99
2018-02-19T18:38:46.214Z,99095.55
2018-02-19T18:41:13.842Z,99090.91
2018-02-19T18:43:41.468Z,99095.93
2018-02-19T18:46:09.093Z,99092.52
2018-02-19T18:48:36.782Z,99094.76
2018-02-19T18:51:04.370Z,99095.66
2018-02-19T18:53:31.937Z,99095.83
2018-02-19T18:55:59.549Z,99092.80
2018-02-19T18:58:27.121Z,99091.02
2018-02-19T19:00:54.694Z,99094.55
2018-02-19T19:03:22.317Z,99092.84
2018-02-19T19:05:49.951Z,99092.30
2018-02-19T19:08:29.228Z,99085.63
2018-02-19T19:10:56.868Z,99085.03
2018-02-19T19:13:24.448Z,99083.75
2018-02-19T19:15:52.139Z,99085.72
2018-02-19T19:18:20.102Z,99084.13
2018-02-19T19:20:47.762Z,99083.27
2018-02-19T19:23:15.404Z,99082.31
2018-02-19T19:25:42.983Z,99078.67
2018-02-19T19:28:10.663Z,99084.34
2018-02-19T19:30:38.271Z,99082.08
2018-02-19T19:33:06.473Z,99084.23
2018-02-19T19:35:34.084Z,99071.80
2018-02-19T19:38:01.698Z,99074.19
2018-02-19T19:40:30.034Z,99072.31
2018-02-19T19:42:57.630Z,99080.38
2018-02-19T19:45:25.278Z,99075.04
2018-02-19T19:47:52.883Z,99072.48
2018-02-19T19:50:20.484Z,99073.77
2018-02-19T19:52:48.110Z,99070.13
2018-02-19T19:55:15.734Z,99074.98
2018-02-19T19:57:43.389Z,99076.16
2018-02-19T20:00:11.047Z,99073.28
2018-02-19T20:02:38.890Z,99067.03
2018-02-19T20:05:06.444Z,99065.33
2018-02-19T20:07:34.084Z,99072.26
2018-02-19T20:10:01.707Z,99072.15
2018-02-19T20:12:29.294Z,99067.83
2018-02-19T20:14:56.959Z,99067.08
2018-02-19T20:17:24.519Z,99069.70
2018-02-19T20:19:52.202Z,99061.89
2018-02-19T20:22:19.847Z,99065.64
2018-02-19T20:24:47.470Z,99056.13
2018-02-19T20:27:15.037Z,99052.71
2018-02-19T20:29:42.657Z,99051.80
2018-02-19T20:32:10.650Z,99050.69
2018-02-19T20:34:38.267Z,99050.99
2018-02-19T20:37:05.885Z,99048.37
2018-02-19T20:39:34.411Z,99047.37
2018-02-19T20:42:01.985Z,99046.61
2018-02-19T20:44:29.635Z,99040.90
2018-02-19T20:46:57.234Z,99034.92
2018-02-19T20:49:24.846Z,99032.56
2018-02-19T20:51:52.482Z,99033.64
2018-02-19T20:54:20.198Z,99029.20
2018-02-19T20:56:47.818Z,99036.52
2018-02-19T20:59:15.498Z,99036.91
2018-02-19T21:01:43.085Z,99030.22
2018-02-19T21:04:10.707Z,99024.45
2018-02-19T21:06:38.342Z,99022.41
2018-02-19T21:09:05.948Z,99029.38
2018-02-19T21:11:34.174Z,99024.17
2018-02-19T21:14:01.823Z,99022.09
2018-02-19T21:16:29.560Z,99027.07
2018-02-19T21:18:57.129Z,99034.21
2018-02-19T21:21:24.913Z,99028.62
2018-02-19T21:23:52.498Z,99035.55
2018-02-19T21:26:20.078Z,99030.70
2018-02-19T21:28:47.808Z,99031.77
2018-02-19T21:31:15.360Z,99032.09
2018-02-19T21:33:43.012Z,99023.86
2018-02-19T21:36:10.703Z,99028.23
2018-02-19T21:38:38.275Z,99030.43
2018-02-19T21:41:05.860Z,99027.64
2018-02-19T21:43:33.480Z,99025.52
2018-02-19T21:46:01.059Z,99022.48
2018-02-19T21:48:28.697Z,99018.45
2018-02-19T21:50:56.326Z,99025.78
2018-02-19T21:53:23.971Z,99021.83
2018-02-19T21:55:51.535Z,99021.46
2018-02-19T21:58:19.165Z,99021.45
2018-02-19T22:00:46.741Z,99017.78
2018-02-19T22:03:14.308Z,99018.20
2018-02-19T22:05:41.937Z,99012.31
2018-02-19T22:08:09.524Z,99017.66
2018-02-19T22:10:37.107Z,99016.17
2018-02-19T22:13:04.755Z,99015.25
2018-02-19T22:15:32.324Z,99018.58
2018-02-19T22:18:00.007Z,99019.05
2018-02-19T22:20:27.632Z,99019.64
2018-02-19T22:22:55.739Z,99016.86
2018-02-19T22:25:23.305Z,99016.27
2018-02-19T22:27:52.535Z,99017.98
2018-02-19T22:30:20.109Z,99017.75
2018-02-19T22:32:47.885Z,99015.73
2018-02-19T22:35:15.504Z,99012.16
2018-02-19T22:37:43.106Z,99000.28
2018-02-19T22:40:10.676Z,99008.89
2018-02-19T22:42:38.305Z,99006.66
2018-02-19T22:45:05.874Z,99008.08
2018-02-19T22:47:33.461Z,99003.98
2018-02-19T22:50:01.126Z,99006.84
2018-02-19T22:52:28.757Z,99012.79
2018-02-19T22:54:56.331Z,99009.09
2018-02-19T22:57:23.973Z,99009.42
2018-02-19T22:59:51.561Z,99009.62
2018-02-19T23:02:19.721Z,99012.29
2018-02-19T23:04:47.339Z,99008.40
2018-02-19T23:07:14.950Z,99012.89
2018-02-19T23:09:42.508Z,99014.06
2018-02-19T23:12:10.144Z,99016.95
2018-02-19T23:14:37.710Z,99011.88
2018-02-19T23:17:05.299Z,99011.70
2018-02-19T23:19:32.950Z,99007.17
2018-02-19T23:22:00.529Z,99006.84
2018-02-19T23:24:28.218Z,99003.54
2018-02-19T23:26:55.846Z,98999.05
2018-02-19T23:29:23.418Z,98993.44
2018-02-19T23:31:51.534Z,98997.33
2018-02-19T23:34:19.137Z,98994.29
2018-02-19T23:36:46.712Z,98987.81
2018-02-19T23:39:14.307Z,98987.39
2018-02-19T23:41:41.951Z,98992.91
2018-02-19T23:44:09.546Z,98991.84
2018-02-19T23:47:15.264Z,98988.04
2018-02-19T23:50:02.651Z,98994.89
2018-02-19T23:52:40.575Z,98990.83
2018-02-19T23:55:08.149Z,98988.95
2018-02-19T23:57:35.748Z,98990.03
